Time;durP1;ratioP1;P1;durP2;ratioP2;P2;SDS_P1;SDS_P2;PMS_P1;PMS_P2;Temp;Humidity;BMP_temperature;BMP_pressure;BME280_temperature;BME280_humidity;BME280_pressure;Samples;Min_cycle;Max_cycle;Signal;HPM_P1;HPM_P2
2022/07/04 00:00:13;;;;;;;6.25;4.95;;;15.30;99.90;;;;;;5099952;28;20047;-86
2022/07/04 00:02:41;;;;;;;7.25;5.15;;;15.30;99.90;;;;;;5099958;28;20035;-86
2022/07/04 00:05:10;;;;;;;6.90;4.72;;;15.30;99.90;;;;;;5099670;28;20042;-86
2022/07/04 00:07:39;;;;;;;7.95;5.82;;;15.20;99.90;;;;;;5084310;28;20040;-86
2022/07/04 00:10:06;;;;;;;6.13;4.95;;;15.20;99.90;;;;;;5100426;28;20087;-86
2022/07/04 00:12:33;;;;;;;6.90;5.40;;;15.20;99.90;;;;;;5084677;28;20043;-86
2022/07/04 00:14:58;;;;;;;6.72;4.78;;;15.10;99.90;;;;;;5083742;28;20031;-85
2022/07/04 00:17:24;;;;;;;6.30;5.07;;;15.00;99.90;;;;;;5083361;28;20039;-86
2022/07/04 00:19:50;;;;;;;6.57;5.25;;;15.00;99.90;;;;;;5100151;28;20407;-86
2022/07/04 00:22:16;;;;;;;7.43;5.05;;;15.00;99.90;;;;;;5100632;28;20035;-86
2022/07/04 00:24:41;;;;;;;5.60;4.75;;;15.00;99.90;;;;;;5065815;28;20506;-86
2022/07/04 00:27:07;;;;;;;6.97;5.05;;;15.00;99.90;;;;;;5099413;28;20040;-85
2022/07/04 00:29:33;;;;;;;6.68;4.90;;;14.90;99.90;;;;;;5066529;28;20131;-86
2022/07/04 00:31:59;;;;;;;7.32;4.90;;;14.90;99.90;;;;;;5067567;28;20040;-86
2022/07/04 00:34:25;;;;;;;8.23;5.65;;;14.90;99.90;;;;;;5100397;28;20495;-86
2022/07/04 00:36:51;;;;;;;6.07;5.28;;;14.80;99.90;;;;;;5065862;28;20399;-86
2022/07/04 00:39:17;;;;;;;6.00;3.97;;;14.80;99.90;;;;;;5066363;28;20040;-86
2022/07/04 00:41:43;;;;;;;6.90;4.90;;;14.80;99.90;;;;;;5083540;28;20035;-86
2022/07/04 00:44:11;;;;;;;6.07;4.63;;;14.80;99.90;;;;;;5082681;28;20042;-86
2022/07/04 00:46:36;;;;;;;6.30;4.85;;;14.70;99.90;;;;;;5082614;28;20039;-86
2022/07/04 00:49:06;;;;;;;6.60;4.07;;;14.70;99.90;;;;;;5083431;28;20051;-86
2022/07/04 00:51:32;;;;;;;6.30;4.22;;;14.70;99.90;;;;;;5099184;28;20194;-86
2022/07/04 00:53:59;;;;;;;5.85;4.75;;;14.70;99.90;;;;;;5064711;28;20043;-86
2022/07/04 00:56:26;;;;;;;7.28;4.80;;;14.70;99.90;;;;;;5081857;28;20437;-86
2022/07/04 00:58:53;;;;;;;5.38;4.40;;;14.60;99.90;;;;;;5081766;28;20039;-86
2022/07/04 01:01:22;;;;;;;6.57;4.45;;;14.60;99.90;;;;;;5099065;28;20556;-86
2022/07/04 01:03:49;;;;;;;7.85;4.93;;;14.50;99.90;;;;;;5081985;28;20039;-86
2022/07/04 01:06:15;;;;;;;5.70;4.68;;;14.50;99.90;;;;;;5082128;28;20104;-86
2022/07/04 01:08:42;;;;;;;7.38;5.13;;;14.40;99.90;;;;;;5099959;28;20445;-86
2022/07/04 01:11:09;;;;;;;6.75;4.82;;;14.40;99.90;;;;;;5082637;28;20047;-86
2022/07/04 01:13:35;;;;;;;6.30;5.00;;;14.40;99.90;;;;;;5098813;28;20131;-86
2022/07/04 01:16:02;;;;;;;7.28;5.00;;;14.30;99.90;;;;;;5098949;28;20109;-86
2022/07/04 01:18:28;;;;;;;5.03;4.53;;;14.30;99.90;;;;;;5098723;28;20108;-86
2022/07/04 01:20:54;;;;;;;7.78;4.30;;;14.30;99.90;;;;;;5098361;28;20039;-86
2022/07/04 01:23:19;;;;;;;5.35;4.82;;;14.20;99.90;;;;;;5081099;28;20035;-86
2022/07/04 01:25:45;;;;;;;5.65;4.82;;;14.20;99.90;;;;;;5081120;28;20050;-86
2022/07/04 01:28:11;;;;;;;6.90;4.70;;;14.20;99.90;;;;;;5064486;28;20040;-86
2022/07/04 01:30:37;;;;;;;5.25;4.75;;;14.10;99.90;;;;;;5098007;28;20043;-86
2022/07/04 01:33:04;;;;;;;6.97;5.05;;;14.10;99.90;;;;;;5064146;28;20047;-86
2022/07/04 01:35:30;;;;;;;5.70;5.20;;;14.10;99.90;;;;;;5097867;28;20043;-86
2022/07/04 01:37:56;;;;;;;6.05;4.80;;;14.10;99.90;;;;;;5081478;28;20052;-86
2022/07/04 01:40:22;;;;;;;6.63;4.80;;;14.10;99.90;;;;;;5081337;28;20039;-86
2022/07/04 01:42:48;;;;;;;6.38;5.35;;;14.10;99.90;;;;;;5097556;28;20588;-86
2022/07/04 01:45:14;;;;;;;8.43;5.50;;;14.00;99.90;;;;;;5097425;28;20046;-86
2022/07/04 01:47:40;;;;;;;8.95;5.85;;;14.00;99.90;;;;;;5080530;28;20055;-86
2022/07/04 01:50:08;;;;;;;6.70;5.18;;;13.90;99.90;;;;;;5097364;28;20040;-86
2022/07/04 01:52:35;;;;;;;5.82;4.97;;;13.90;99.90;;;;;;5080252;28;20043;-86
2022/07/04 01:55:01;;;;;;;5.40;4.50;;;13.90;99.90;;;;;;5096928;28;20040;-86
2022/07/04 01:57:26;;;;;;;6.15;5.00;;;13.90;99.90;;;;;;5080201;28;20031;-86
2022/07/04 02:02:37;;;;;;;9.57;5.28;;;13.90;99.90;;;;;;5096837;28;20048;-85
2022/07/04 02:05:03;;;;;;;6.22;5.30;;;13.90;99.90;;;;;;5080141;28;20039;-86
2022/07/04 02:07:29;;;;;;;5.88;5.13;;;13.90;99.90;;;;;;5100964;28;20047;-85
2022/07/04 02:09:55;;;;;;;7.20;5.15;;;13.80;99.90;;;;;;5067543;28;20048;-86
2022/07/04 02:15:05;;;;;;;6.57;5.18;;;13.80;99.90;;;;;;5096863;28;20039;-86
2022/07/04 02:17:31;;;;;;;7.00;5.05;;;13.80;99.90;;;;;;5079685;28;20035;-86
2022/07/04 02:19:57;;;;;;;5.95;5.20;;;13.80;99.90;;;;;;5079894;28;20100;-85
2022/07/04 02:22:23;;;;;;;6.25;4.90;;;13.80;99.90;;;;;;5079844;28;20399;-86
2022/07/04 02:24:48;;;;;;;7.30;5.65;;;13.80;99.90;;;;;;5080464;28;20040;-85
2022/07/04 02:27:14;;;;;;;7.15;5.43;;;13.80;99.90;;;;;;5063179;28;20035;-86
2022/07/04 02:29:40;;;;;;;6.75;5.45;;;13.80;99.90;;;;;;5097214;28;20092;-86
2022/07/04 02:32:06;;;;;;;7.85;5.40;;;13.80;99.90;;;;;;5096841;28;20066;-86
2022/07/04 02:34:32;;;;;;;6.20;5.55;;;13.70;99.90;;;;;;5097097;28;20044;-86
2022/07/04 02:36:58;;;;;;;8.25;5.50;;;13.70;99.90;;;;;;5079675;28;20056;-86
2022/07/04 02:39:24;;;;;;;6.80;5.35;;;13.70;99.90;;;;;;5087723;28;20039;-87
2022/07/04 02:41:50;;;;;;;8.77;5.82;;;13.70;99.90;;;;;;5097708;28;20510;-86
2022/07/04 02:44:15;;;;;;;6.45;5.57;;;13.60;99.90;;;;;;5080665;28;20390;-86
2022/07/04 02:46:41;;;;;;;8.50;5.53;;;13.60;99.90;;;;;;5080453;28;20078;-86
2022/07/04 02:49:07;;;;;;;6.60;5.88;;;13.60;99.90;;;;;;5079634;28;20046;-86
2022/07/04 02:51:33;;;;;;;7.68;5.53;;;13.60;99.90;;;;;;5063082;28;20054;-86
2022/07/04 02:53:59;;;;;;;7.50;5.97;;;13.50;99.90;;;;;;5063161;28;20487;-86
2022/07/04 02:56:24;;;;;;;8.80;5.90;;;13.60;99.90;;;;;;5063666;28;20039;-86
2022/07/04 02:58:50;;;;;;;6.72;6.07;;;13.50;99.90;;;;;;5063155;28;20123;-86
2022/07/04 03:01:18;;;;;;;7.05;5.90;;;13.50;99.90;;;;;;5079946;28;20082;-86
2022/07/04 03:03:44;;;;;;;6.63;5.78;;;13.50;99.90;;;;;;5080049;28;20035;-86
2022/07/04 03:06:10;;;;;;;8.57;6.68;;;13.50;99.90;;;;;;5080128;28;20042;-86
2022/07/04 03:08:36;;;;;;;9.50;6.32;;;13.50;99.90;;;;;;5079941;28;20059;-85
2022/07/04 03:11:02;;;;;;;11.93;7.28;;;13.50;99.90;;;;;;5080035;28;20372;-86
2022/07/04 03:13:28;;;;;;;9.77;6.47;;;13.50;99.90;;;;;;5096239;28;20050;-86
2022/07/04 03:15:54;;;;;;;7.00;5.95;;;13.50;99.90;;;;;;5080293;28;20036;-86
2022/07/04 03:18:20;;;;;;;9.10;6.40;;;13.40;99.90;;;;;;5063077;28;20457;-86
2022/07/04 03:20:46;;;;;;;9.20;6.15;;;13.40;99.90;;;;;;5097826;28;20136;-86
2022/07/04 03:23:13;;;;;;;8.02;6.05;;;13.50;99.90;;;;;;5079487;28;20031;-86
2022/07/04 03:25:39;;;;;;;7.90;6.60;;;13.40;99.90;;;;;;5096338;28;20039;-86
2022/07/04 03:28:06;;;;;;;8.65;6.10;;;13.50;99.90;;;;;;5079488;28;20050;-86
2022/07/04 03:30:32;;;;;;;7.25;6.32;;;13.50;99.90;;;;;;5096550;28;20035;-86
2022/07/04 03:32:58;;;;;;;9.05;6.60;;;13.50;99.90;;;;;;5096835;28;20044;-86
2022/07/04 03:35:24;;;;;;;7.80;6.53;;;13.50;99.90;;;;;;5079887;28;20040;-86
2022/07/04 03:37:51;;;;;;;10.23;6.68;;;13.50;99.90;;;;;;5079766;28;20092;-86
2022/07/04 03:40:17;;;;;;;8.07;6.50;;;13.50;99.90;;;;;;5080004;28;20031;-86
2022/07/04 03:42:43;;;;;;;8.05;6.80;;;13.40;99.90;;;;;;5096790;28;20032;-86
2022/07/04 03:45:09;;;;;;;6.97;6.28;;;13.40;99.90;;;;;;5079782;28;20084;-86
2022/07/04 03:47:35;;;;;;;7.07;6.05;;;13.50;99.90;;;;;;5063014;28;20415;-86
2022/07/04 03:50:01;;;;;;;7.13;5.93;;;13.40;99.90;;;;;;5079879;28;20135;-86
2022/07/04 03:52:30;;;;;;;8.98;6.10;;;13.40;99.90;;;;;;5114804;28;20459;-86
2022/07/04 03:54:55;;;;;;;7.88;5.82;;;13.40;99.90;;;;;;5062379;28;20085;-86
2022/07/04 03:57:21;;;;;;;7.55;6.70;;;13.40;99.90;;;;;;5079048;28;20114;-86
2022/07/04 03:59:47;;;;;;;15.50;7.45;;;13.40;99.90;;;;;;5096367;28;20730;-86
2022/07/04 04:02:13;;;;;;;9.18;7.10;;;13.40;99.90;;;;;;5079627;28;20036;-86
2022/07/04 04:07:23;;;;;;;13.90;7.47;;;13.40;99.90;;;;;;5067665;28;20043;-86
2022/07/04 04:09:49;;;;;;;12.38;8.20;;;13.40;99.90;;;;;;5062400;28;20050;-86
2022/07/04 04:12:15;;;;;;;15.10;8.68;;;13.40;99.90;;;;;;5079175;28;20104;-86
2022/07/04 04:14:41;;;;;;;17.35;9.65;;;13.50;99.90;;;;;;5079449;28;20126;-86
2022/07/04 04:17:06;;;;;;;16.42;9.10;;;13.60;99.90;;;;;;5096189;28;20036;-86
2022/07/04 04:19:32;;;;;;;10.75;7.90;;;13.60;99.90;;;;;;5098522;28;20036;-86
2022/07/04 04:21:58;;;;;;;15.63;8.48;;;13.60;99.90;;;;;;5047589;28;20083;-86
2022/07/04 04:24:23;;;;;;;9.77;7.15;;;13.50;99.90;;;;;;5096513;28;20039;-87
2022/07/04 04:26:49;;;;;;;11.00;6.82;;;13.60;99.90;;;;;;5096455;28;20043;-86
2022/07/04 04:29:15;;;;;;;9.65;6.88;;;13.60;99.90;;;;;;5079407;28;20040;-86
2022/07/04 04:31:40;;;;;;;10.05;7.32;;;13.60;99.90;;;;;;5078987;28;20040;-85
2022/07/04 04:34:06;;;;;;;10.70;7.28;;;13.70;99.90;;;;;;5081443;28;20074;-86
2022/07/04 04:36:32;;;;;;;10.40;6.93;;;13.70;99.90;;;;;;5082342;28;20162;-86
2022/07/04 04:38:58;;;;;;;10.90;6.57;;;13.70;99.90;;;;;;5066058;28;20031;-86
2022/07/04 04:41:23;;;;;;;11.25;6.70;;;13.70;99.90;;;;;;5082111;28;20406;-86
2022/07/04 04:43:49;;;;;;;10.20;5.80;;;13.80;99.90;;;;;;5082105;28;20043;-86
2022/07/04 04:46:15;;;;;;;8.98;6.35;;;13.80;99.90;;;;;;5100430;28;20044;-86
2022/07/04 04:48:40;;;;;;;10.38;6.10;;;13.80;99.90;;;;;;5084708;28;20027;-86
2022/07/04 04:51:06;;;;;;;11.13;6.13;;;13.80;99.90;;;;;;5100818;28;20099;-86
2022/07/04 04:53:32;;;;;;;8.35;5.85;;;13.90;99.90;;;;;;5068139;28;20122;-86
2022/07/04 04:55:57;;;;;;;11.05;5.63;;;13.90;99.90;;;;;;5100834;28;20038;-86
2022/07/04 04:58:23;;;;;;;8.02;5.90;;;13.90;99.90;;;;;;5050617;28;20155;-86
2022/07/04 05:00:50;;;;;;;9.55;5.88;;;14.00;99.90;;;;;;5066769;28;20047;-86
2022/07/04 05:03:18;;;;;;;8.50;6.05;;;14.00;99.90;;;;;;5081774;28;20089;-85
2022/07/04 05:05:45;;;;;;;9.55;6.28;;;14.10;99.90;;;;;;5082095;28;20795;-86
2022/07/04 05:08:14;;;;;;;9.77;6.30;;;14.10;99.90;;;;;;5081269;28;20113;-86
2022/07/04 05:10:40;;;;;;;10.25;5.65;;;14.10;99.90;;;;;;5080930;28;20042;-86
2022/07/04 05:13:07;;;;;;;8.45;5.13;;;14.20;99.90;;;;;;5082105;28;20047;-86
2022/07/04 05:15:33;;;;;;;8.52;5.38;;;14.20;99.90;;;;;;5098365;28;20548;-86
2022/07/04 05:17:59;;;;;;;8.60;5.20;;;14.30;99.90;;;;;;5082272;28;20039;-86
2022/07/04 05:20:24;;;;;;;7.68;5.70;;;14.30;99.90;;;;;;5101282;28;20042;-87
2022/07/04 05:22:50;;;;;;;10.55;5.10;;;14.40;99.90;;;;;;5089021;28;20127;-86
2022/07/04 05:25:16;;;;;;;7.07;5.25;;;14.40;99.90;;;;;;5116604;28;20031;-85
2022/07/04 05:27:42;;;;;;;7.63;4.75;;;14.40;99.90;;;;;;5082310;28;20047;-86
2022/07/04 05:30:08;;;;;;;8.80;4.88;;;14.50;99.90;;;;;;5089079;28;20054;-86
2022/07/04 05:32:34;;;;;;;6.38;4.85;;;14.50;99.90;;;;;;5085310;28;20104;-86
2022/07/04 05:35:00;;;;;;;7.95;5.00;;;14.60;99.90;;;;;;5083069;28;20434;-86
2022/07/04 05:37:25;;;;;;;12.23;5.65;;;14.70;99.90;;;;;;5082880;28;20483;-87
2022/07/04 05:39:52;;;;;;;10.68;5.00;;;14.70;99.90;;;;;;5066164;28;20039;-86
2022/07/04 05:42:17;;;;;;;7.03;4.50;;;14.80;99.90;;;;;;5100051;28;20096;-86
2022/07/04 05:44:43;;;;;;;6.07;4.80;;;14.90;99.90;;;;;;5083033;28;20506;-86
2022/07/04 05:47:09;;;;;;;10.20;5.00;;;14.90;99.90;;;;;;5066600;28;20437;-86
2022/07/04 05:49:35;;;;;;;10.73;6.03;;;15.00;99.90;;;;;;5066072;28;20039;-86
2022/07/04 05:52:01;;;;;;;8.75;5.03;;;15.10;99.90;;;;;;5082475;28;20294;-85
2022/07/04 05:54:27;;;;;;;13.48;4.80;;;15.20;99.90;;;;;;5066849;28;20043;-86
2022/07/04 05:56:53;;;;;;;6.10;4.60;;;15.20;99.90;;;;;;5082306;28;20039;-86
2022/07/04 05:59:19;;;;;;;9.18;5.03;;;15.30;99.90;;;;;;5081300;28;20035;-86
2022/07/04 06:01:45;;;;;;;8.02;5.05;;;15.30;99.90;;;;;;5081711;28;20039;-86
2022/07/04 06:04:11;;;;;;;7.10;4.68;;;15.40;99.90;;;;;;5082968;28;20035;-86
2022/07/04 06:06:36;;;;;;;8.95;4.78;;;15.60;99.90;;;;;;5083643;28;20464;-85
2022/07/04 06:09:03;;;;;;;8.45;5.05;;;15.70;99.90;;;;;;5098213;28;20050;-86
2022/07/04 06:11:29;;;;;;;10.98;4.65;;;15.80;99.90;;;;;;5065668;28;20418;-86
2022/07/04 06:13:55;;;;;;;9.30;4.72;;;15.90;99.90;;;;;;5098718;28;20507;-86
2022/07/04 06:16:20;;;;;;;7.47;4.47;;;15.90;99.90;;;;;;5064633;28;20047;-86
2022/07/04 06:18:46;;;;;;;7.50;4.57;;;15.90;99.90;;;;;;5098776;28;20031;-86
2022/07/04 06:21:12;;;;;;;11.77;4.75;;;15.90;99.90;;;;;;5099189;28;20564;-86
2022/07/04 06:23:38;;;;;;;6.75;4.95;;;16.00;99.90;;;;;;5098974;28;20126;-86
2022/07/04 06:26:03;;;;;;;9.32;4.70;;;16.10;99.90;;;;;;5082563;28;20035;-87
2022/07/04 06:28:30;;;;;;;9.57;5.13;;;16.20;99.90;;;;;;5082215;28;20079;-86
2022/07/04 06:30:56;;;;;;;8.05;4.18;;;16.30;99.90;;;;;;5082142;28;20043;-86
2022/07/04 06:33:22;;;;;;;9.18;4.40;;;16.40;99.90;;;;;;5082030;28;20434;-86
2022/07/04 06:35:56;;;;;;;8.13;4.85;;;16.60;99.90;;;;;;5080758;28;20117;-86
2022/07/04 06:38:25;;;;;;;7.53;4.40;;;16.60;99.90;;;;;;5082576;28;20079;-86
2022/07/04 06:40:54;;;;;;;8.38;4.85;;;16.80;99.90;;;;;;5098614;28;20475;-86
2022/07/04 06:43:20;;;;;;;9.05;4.60;;;17.00;99.90;;;;;;5081855;28;20445;-85
2022/07/04 06:45:45;;;;;;;10.05;4.55;;;17.10;99.90;;;;;;5064179;28;20102;-86
2022/07/04 06:48:11;;;;;;;8.63;4.15;;;17.30;99.90;;;;;;5064475;28;20104;-86
2022/07/04 06:50:37;;;;;;;8.57;4.15;;;17.40;99.90;;;;;;5064014;28;20028;-86
2022/07/04 06:53:05;;;;;;;7.00;4.47;;;17.50;99.90;;;;;;5080936;28;20036;-86
2022/07/04 06:55:31;;;;;;;7.95;4.70;;;17.60;99.90;;;;;;5097356;28;20066;-86
2022/07/04 06:57:57;;;;;;;10.82;4.85;;;17.80;99.90;;;;;;5046880;28;20039;-85
2022/07/04 07:00:24;;;;;;;10.30;4.32;;;17.80;99.90;;;;;;5080655;28;20042;-86
2022/07/04 07:02:50;;;;;;;10.65;4.70;;;18.00;99.90;;;;;;5096940;28;20126;-85
2022/07/04 07:05:15;;;;;;;9.07;4.40;;;18.20;99.90;;;;;;5097732;28;20040;-86
2022/07/04 07:07:41;;;;;;;12.27;4.75;;;18.30;99.90;;;;;;5081507;28;20087;-86
2022/07/04 07:10:07;;;;;;;11.75;4.70;;;18.40;99.90;;;;;;5080866;28;20043;-85
2022/07/04 07:12:35;;;;;;;8.18;4.30;;;18.50;99.90;;;;;;5081215;28;20051;-86
2022/07/04 07:15:01;;;;;;;8.88;4.85;;;18.70;99.90;;;;;;5064309;28;20127;-85
2022/07/04 07:17:28;;;;;;;11.27;4.93;;;18.90;99.90;;;;;;5081506;28;20040;-85
2022/07/04 07:19:54;;;;;;;12.02;5.10;;;19.00;99.90;;;;;;5081144;28;20043;-86
2022/07/04 07:22:20;;;;;;;12.93;5.13;;;19.00;99.90;;;;;;5064420;28;20075;-85
2022/07/04 07:24:46;;;;;;;9.70;4.80;;;18.90;99.90;;;;;;5097498;28;20494;-86
2022/07/04 07:27:12;;;;;;;8.88;4.63;;;19.00;99.90;;;;;;5081166;28;20047;-85
2022/07/04 07:29:38;;;;;;;7.30;5.03;;;19.10;99.90;;;;;;5097651;28;20110;-85
2022/07/04 07:32:05;;;;;;;8.60;4.57;;;19.40;99.90;;;;;;5097093;28;20043;-86
2022/07/04 07:34:31;;;;;;;9.70;4.63;;;19.50;99.90;;;;;;5080623;28;20046;-85
2022/07/04 07:36:57;;;;;;;8.95;4.40;;;19.40;99.90;;;;;;5079597;28;20043;-85
2022/07/04 07:39:23;;;;;;;7.82;4.70;;;19.30;99.90;;;;;;5081323;28;20100;-85
2022/07/04 07:41:48;;;;;;;10.68;5.20;;;19.30;99.90;;;;;;5064196;28;20040;-86
2022/07/04 07:44:14;;;;;;;8.75;5.55;;;19.20;99.90;;;;;;5097477;28;20086;-85
2022/07/04 07:46:40;;;;;;;10.65;4.80;;;19.10;99.90;;;;;;5079595;28;20415;-85
2022/07/04 07:49:06;;;;;;;8.45;3.83;;;19.10;99.90;;;;;;5078734;28;20043;-86
2022/07/04 07:51:32;;;;;;;7.90;3.10;;;19.20;99.90;;;;;;5063064;28;20078;-85
2022/07/04 07:53:58;;;;;;;6.68;2.70;;;19.30;99.90;;;;;;5096458;28;20051;-85
2022/07/04 07:56:25;;;;;;;9.95;3.22;;;19.40;99.90;;;;;;5095951;28;20501;-85
2022/07/04 07:58:51;;;;;;;7.05;3.13;;;19.60;99.90;;;;;;5079624;28;20126;-85
2022/07/04 08:01:17;;;;;;;7.50;3.38;;;19.80;99.90;;;;;;5079405;28;20410;-85
2022/07/04 08:06:27;;;;;;;8.80;3.03;;;20.40;99.90;;;;;;5096536;28;20136;-86
2022/07/04 08:08:52;;;;;;;6.32;3.05;;;20.60;99.90;;;;;;5099001;28;20434;-86
2022/07/04 08:11:18;;;;;;;5.93;2.78;;;20.50;99.90;;;;;;5083545;28;20476;-86
2022/07/04 08:13:44;;;;;;;7.80;3.25;;;20.50;99.90;;;;;;5067206;28;20475;-85
2022/07/04 08:16:10;;;;;;;7.65;2.90;;;20.60;99.90;;;;;;5083789;28;20377;-86
2022/07/04 08:18:36;;;;;;;5.95;2.70;;;20.70;99.90;;;;;;5083841;28;20043;-86
2022/07/04 08:21:02;;;;;;;7.18;2.92;;;21.00;99.90;;;;;;5083911;28;20027;-85
2022/07/04 08:23:30;;;;;;;8.30;3.40;;;21.30;99.90;;;;;;5083419;28;20048;-85
2022/07/04 08:25:56;;;;;;;5.20;2.42;;;21.40;99.90;;;;;;5100225;28;20043;-86
2022/07/04 08:28:22;;;;;;;12.05;2.60;;;21.40;99.90;;;;;;5084070;28;20051;-86
2022/07/04 08:30:48;;;;;;;5.50;2.65;;;21.50;99.90;;;;;;5083279;28;20092;-85
2022/07/04 08:33:13;;;;;;;8.50;2.78;;;21.60;99.90;;;;;;5082226;28;20058;-86
2022/07/04 08:35:39;;;;;;;8.10;2.60;;;21.60;99.90;;;;;;5048933;28;20050;-85
2022/07/04 08:38:05;;;;;;;4.88;2.15;;;21.60;99.90;;;;;;5082395;28;20460;-85
2022/07/04 08:40:31;;;;;;;6.50;2.50;;;21.80;99.90;;;;;;5066316;28;20038;-85
2022/07/04 08:42:57;;;;;;;6.57;2.70;;;22.00;99.90;;;;;;5099128;28;20357;-85
2022/07/04 08:45:28;;;;;;;6.53;2.78;;;22.10;99.90;;;;;;5082421;28;20515;-85
2022/07/04 08:48:01;;;;;;;7.57;2.30;;;22.00;99.90;;;;;;5082111;28;20040;-85
2022/07/04 08:50:46;;;;;;;9.00;2.40;;;21.80;99.90;;;;;;5082432;28;20061;-84
2022/07/04 08:53:15;;;;;;;8.65;2.20;;;21.90;99.90;;;;;;5082301;28;20035;-85
2022/07/04 08:58:31;;;;;;;5.15;1.95;;;22.50;99.90;;;;;;5084354;28;20048;-84
2022/07/04 09:01:07;;;;;;;7.88;2.17;;;22.70;99.90;;;;;;5099509;28;20059;-85
2022/07/04 09:03:34;;;;;;;4.28;1.83;;;22.50;99.90;;;;;;5099199;28;20031;-86
2022/07/04 09:06:04;;;;;;;6.32;2.17;;;22.30;99.90;;;;;;5082306;28;20373;-85
2022/07/04 09:08:30;;;;;;;6.65;2.30;;;21.90;99.90;;;;;;5081688;28;20040;-85
2022/07/04 09:10:56;;;;;;;4.50;1.80;;;21.60;99.90;;;;;;5048345;28;20050;-78
2022/07/04 09:13:22;;;;;;;3.80;1.95;;;21.60;99.90;;;;;;5081375;28;20039;-78
2022/07/04 09:15:50;;;;;;;4.28;1.42;;;21.70;99.90;;;;;;5064663;28;20027;-78
2022/07/04 09:18:22;;;;;;;5.88;1.77;;;22.00;99.90;;;;;;5082027;28;20051;-78
2022/07/04 09:20:48;;;;;;;5.22;2.00;;;22.20;99.90;;;;;;5098586;28;20050;-78
2022/07/04 09:23:28;;;;;;;4.72;1.52;;;22.50;99.90;;;;;;5099072;28;20039;-78
2022/07/04 09:26:20;;;;;;;3.88;1.42;;;22.70;97.10;;;;;;5098036;28;20039;-78
2022/07/04 09:28:56;;;;;;;4.78;1.33;;;22.80;95.50;;;;;;5098347;28;20491;-78
2022/07/04 09:31:23;;;;;;;;;;;22.80;97.10;;;;;;5081391;28;20086;-78
2022/07/04 09:33:54;;;;;;;4.65;1.20;;;22.70;95.10;;;;;;5080928;28;19922;-78
2022/07/04 09:36:22;;;;;;;3.35;1.40;;;22.50;97.50;;;;;;5097793;28;20056;-78
2022/07/04 09:39:06;;;;;;;2.42;1.20;;;22.40;97.90;;;;;;5098329;28;20051;-78
2022/07/04 09:41:49;;;;;;;4.07;1.40;;;22.60;96.60;;;;;;5081196;28;20391;-77
2022/07/04 09:44:14;;;;;;;2.65;1.05;;;22.70;97.50;;;;;;5098384;28;20571;-78
2022/07/04 09:46:40;;;;;;;3.00;1.25;;;22.80;97.20;;;;;;5097874;28;20071;-78
2022/07/04 09:49:06;;;;;;;1.90;1.17;;;22.80;95.10;;;;;;5048075;28;20043;-79
2022/07/04 09:51:43;;;;;;;2.47;1.10;;;22.70;95.00;;;;;;5081294;28;20483;-78
2022/07/04 09:54:13;;;;;;;4.30;1.33;;;22.50;93.30;;;;;;5080761;28;20479;-78
2022/07/04 09:56:44;;;;;;;2.13;1.10;;;22.30;93.00;;;;;;5097934;28;20380;-78
2022/07/04 09:59:10;;;;;;;3.78;1.08;;;22.20;92.60;;;;;;5064182;28;20054;-78
2022/07/04 10:01:36;;;;;;;2.58;1.10;;;22.20;93.80;;;;;;5064142;28;20480;-78
2022/07/04 10:04:05;;;;;;;5.20;1.20;;;22.40;94.40;;;;;;5080291;28;20047;-78
2022/07/04 10:06:33;;;;;;;4.22;1.25;;;22.60;94.00;;;;;;5081369;28;20098;-78
2022/07/04 10:09:18;;;;;;;3.45;1.30;;;22.70;93.90;;;;;;5080830;28;20483;-78
2022/07/04 10:11:47;;;;;;;3.33;1.20;;;22.60;92.30;;;;;;5097298;28;20039;-78
2022/07/04 10:14:15;;;;;;;3.30;1.42;;;22.60;93.00;;;;;;5080751;28;20036;-78
2022/07/04 10:16:41;;;;;;;3.45;1.00;;;22.50;92.10;;;;;;5080176;28;20040;-77
2022/07/04 10:19:08;;;;;;;1.70;0.93;;;22.40;92.20;;;;;;5096814;28;20177;-78
2022/07/04 10:21:34;;;;;;;2.20;1.10;;;22.30;92.50;;;;;;5079987;28;20042;-78
2022/07/04 10:24:01;;;;;;;4.75;1.30;;;22.30;91.50;;;;;;5080939;28;20032;-78
2022/07/04 10:26:29;;;;;;;3.30;1.40;;;22.20;91.30;;;;;;5097312;28;20043;-78
2022/07/04 10:28:55;;;;;;;4.40;1.15;;;22.00;90.90;;;;;;5080022;28;20049;-78
2022/07/04 10:31:23;;;;;;;2.22;1.10;;;22.00;91.20;;;;;;5079933;28;20091;-78
2022/07/04 10:33:50;;;;;;;3.33;1.00;;;21.90;91.30;;;;;;5097269;28;20055;-79
2022/07/04 10:36:17;;;;;;;4.75;1.40;;;21.90;91.50;;;;;;5080216;28;20091;-78
2022/07/04 10:39:04;;;;;;;2.35;1.20;;;21.80;91.30;;;;;;5080150;28;20071;-78
2022/07/04 10:41:31;;;;;;;2.55;1.30;;;21.70;91.90;;;;;;5079898;28;20035;-78
2022/07/04 10:44:00;;;;;;;2.85;1.40;;;21.60;92.40;;;;;;5097754;28;20047;-78
2022/07/04 10:46:51;;;;;;;2.45;1.38;;;21.60;92.80;;;;;;5096948;28;20055;-78
2022/07/04 10:49:22;;;;;;;2.72;1.30;;;21.60;93.00;;;;;;5056470;28;20043;-78
2022/07/04 10:52:09;;;;;;;3.00;1.20;;;21.60;92.60;;;;;;5079455;28;20051;-78
2022/07/04 10:54:37;;;;;;;2.38;1.13;;;21.60;92.30;;;;;;5095706;28;20499;-78
2022/07/04 10:57:17;;;;;;;1.45;1.13;;;21.60;92.10;;;;;;5063499;28;20054;-78
2022/07/04 11:00:04;;;;;;;3.47;1.13;;;21.60;92.00;;;;;;5096767;28;20054;-78
2022/07/04 11:02:32;;;;;;;2.17;1.20;;;21.70;92.50;;;;;;5080666;28;20044;-77
2022/07/04 11:05:11;;;;;;;4.97;1.17;;;21.80;92.60;;;;;;5096930;28;20480;-78
2022/07/04 11:07:57;;;;;;;3.00;1.30;;;21.90;91.70;;;;;;5081766;28;20040;-79
2022/07/04 11:10:23;;;;;;;6.47;1.30;;;22.00;91.80;;;;;;5099877;28;20039;-78
2022/07/04 11:12:59;;;;;;;6.38;1.33;;;22.10;92.40;;;;;;5067863;28;20040;-78
2022/07/04 11:15:27;;;;;;;4.75;1.20;;;22.20;91.90;;;;;;5081822;28;20126;-78
2022/07/04 11:18:05;;;;;;;3.85;1.10;;;22.40;93.10;;;;;;5096766;28;20043;-78
2022/07/04 11:20:34;;;;;;;4.88;1.65;;;22.60;92.20;;;;;;5097286;28;20043;-78
2022/07/04 11:23:13;;;;;;;3.45;1.40;;;22.70;91.70;;;;;;5079766;28;20042;-78
2022/07/04 11:25:42;;;;;;;4.63;1.55;;;22.70;90.80;;;;;;5096750;28;20042;-78
2022/07/04 11:28:23;;;;;;;2.17;1.35;;;22.70;91.40;;;;;;5063424;28;20039;-79
2022/07/04 11:30:53;;;;;;;4.07;1.20;;;22.70;90.30;;;;;;5096314;28;20379;-78
2022/07/04 11:33:22;;;;;;;3.08;1.30;;;22.70;91.60;;;;;;5062891;28;20047;-79
2022/07/04 11:36:11;;;;;;;2.72;1.10;;;22.70;91.70;;;;;;5091576;28;20052;-79
2022/07/04 11:38:47;;;;;;;3.35;1.40;;;22.80;92.00;;;;;;5092346;28;20040;-78
2022/07/04 11:46:41;;;;;;;3.00;1.30;;;23.00;89.90;;;;;;5100416;28;20075;-78
2022/07/04 11:49:11;;;;;;;3.55;1.33;;;23.10;90.50;;;;;;5050077;28;20047;-79
2022/07/04 11:51:47;;;;;;;8.13;1.35;;;23.10;90.50;;;;;;5083134;28;20127;-79
2022/07/04 11:54:13;;;;;;;3.10;1.20;;;23.30;90.70;;;;;;5083111;28;20051;-79
2022/07/04 11:56:39;;;;;;;4.78;1.75;;;23.40;90.70;;;;;;5082892;28;20039;-79
2022/07/04 11:59:13;;;;;;;5.30;1.10;;;23.50;90.50;;;;;;5066791;28;20047;-78
2022/07/04 12:01:43;;;;;;;2.20;1.20;;;23.50;86.80;;;;;;5099902;28;20040;-78
2022/07/04 12:04:17;;;;;;;2.53;1.30;;;23.30;87.40;;;;;;5082592;28;20104;-79
2022/07/04 12:06:48;;;;;;;3.50;1.00;;;23.30;87.50;;;;;;5099125;28;20076;-78
2022/07/04 12:09:17;;;;;;;3.08;1.10;;;23.30;87.70;;;;;;5082770;28;20176;-78
2022/07/04 12:11:57;;;;;;;4.13;1.70;;;23.20;85.50;;;;;;5083079;28;20395;-78
2022/07/04 12:14:24;;;;;;;2.30;1.20;;;23.10;85.30;;;;;;5099277;28;20052;-78
2022/07/04 12:17:07;;;;;;;8.68;1.17;;;23.10;85.30;;;;;;5082387;28;20361;-78
2022/07/04 12:19:33;;;;;;;11.27;1.30;;;23.10;85.50;;;;;;5082233;28;20400;-78
2022/07/04 12:21:59;;;;;;;2.25;1.00;;;23.10;84.80;;;;;;5065121;28;20032;-78
2022/07/04 12:24:27;;;;;;;4.35;1.17;;;23.20;84.40;;;;;;5098893;28;20048;-78
2022/07/04 12:26:53;;;;;;;2.65;1.10;;;23.30;83.70;;;;;;5081692;28;20089;-78
2022/07/04 12:29:27;;;;;;;2.78;0.98;;;23.50;84.30;;;;;;5048671;28;20132;-78
2022/07/04 12:31:54;;;;;;;3.30;1.08;;;23.80;80.20;;;;;;5065134;28;20396;-78
2022/07/04 12:34:20;;;;;;;2.10;0.82;;;23.90;82.00;;;;;;5098045;28;20075;-78
2022/07/04 12:36:56;;;;;;;4.15;1.35;;;24.00;83.00;;;;;;5079734;28;20424;-78
2022/07/04 12:39:28;;;;;;;1.30;0.90;;;24.40;81.00;;;;;;5082467;28;20052;-79
2022/07/04 12:42:09;;;;;;;3.05;1.17;;;24.70;79.90;;;;;;5065914;28;20404;-78
2022/07/04 12:44:35;;;;;;;1.27;0.73;;;25.00;78.50;;;;;;5081693;28;20036;-78
2022/07/04 12:47:03;;;;;;;2.40;0.80;;;25.20;79.50;;;;;;5081483;28;20048;-79
2022/07/04 12:49:29;;;;;;;1.52;0.70;;;25.50;77.40;;;;;;5082069;28;20044;-78
2022/07/04 12:52:12;;;;;;;2.35;1.00;;;25.60;75.40;;;;;;5081923;28;20117;-78
2022/07/04 12:54:38;;;;;;;2.67;1.00;;;25.60;71.60;;;;;;5078566;28;20044;-79
2022/07/04 12:57:18;;;;;;;6.95;0.95;;;25.80;74.60;;;;;;5061611;28;20101;-78
2022/07/04 12:59:44;;;;;;;3.10;1.08;;;26.10;70.70;;;;;;5095592;28;20040;-79
2022/07/04 13:02:11;;;;;;;3.42;1.00;;;26.20;72.90;;;;;;5061828;28;20079;-80
2022/07/04 13:04:38;;;;;;;4.05;1.13;;;26.40;72.30;;;;;;5078458;28;20085;-79
2022/07/04 13:07:17;;;;;;;3.58;0.88;;;26.50;71.90;;;;;;5062426;28;20036;-79